createdAt,value
2023-06-19T00:00:37.447Z,18.89
2023-06-19T00:01:37.492Z,18.89
2023-06-19T00:02:37.499Z,18.90
2023-06-19T00:03:37.475Z,18.90
2023-06-19T00:04:37.396Z,18.89
2023-06-19T00:05:37.380Z,18.90
2023-06-19T00:06:37.378Z,18.88
2023-06-19T00:07:37.366Z,18.83
2023-06-19T00:08:37.397Z,18.83
2023-06-19T00:09:37.339Z,18.81
2023-06-19T00:10:37.326Z,18.78
2023-06-19T00:11:37.316Z,18.77
2023-06-19T00:12:37.294Z,18.75
2023-06-19T00:13:37.294Z,18.75
2023-06-19T00:14:37.288Z,18.77
2023-06-19T00:15:37.274Z,18.75
2023-06-19T00:16:37.331Z,18.75
2023-06-19T00:17:37.272Z,18.77
2023-06-19T00:18:37.260Z,18.80
2023-06-19T00:19:37.415Z,18.77
2023-06-19T00:20:37.211Z,18.77
2023-06-19T00:21:37.173Z,18.77
2023-06-19T00:22:37.174Z,18.75
2023-06-19T00:23:37.151Z,18.74
2023-06-19T00:24:37.237Z,18.73
2023-06-19T00:25:37.134Z,18.70
2023-06-19T00:26:37.119Z,18.70
2023-06-19T00:27:37.097Z,18.70
2023-06-19T00:28:37.086Z,18.68
2023-06-19T00:29:37.077Z,18.65
2023-06-19T00:30:37.061Z,18.63
2023-06-19T00:31:37.042Z,18.62
2023-06-19T00:32:37.047Z,18.58
2023-06-19T00:33:37.020Z,18.56
2023-06-19T00:34:37.024Z,18.55
2023-06-19T00:35:37.002Z,18.52
2023-06-19T00:36:36.977Z,18.50
2023-06-19T00:37:36.968Z,18.45
2023-06-19T00:38:36.950Z,18.45
2023-06-19T00:39:36.946Z,18.44
2023-06-19T00:40:36.937Z,18.41
2023-06-19T00:41:36.912Z,18.38
2023-06-19T00:42:36.922Z,18.35
2023-06-19T00:43:36.884Z,18.34
2023-06-19T00:44:36.869Z,18.33
2023-06-19T00:45:36.884Z,18.31
2023-06-19T00:46:36.859Z,18.29
2023-06-19T00:47:36.865Z,18.25
2023-06-19T00:48:36.828Z,18.23
2023-06-19T00:49:36.822Z,18.23
2023-06-19T00:50:36.831Z,18.22
2023-06-19T00:51:36.791Z,18.20
2023-06-19T00:52:36.774Z,18.22
2023-06-19T00:53:36.815Z,18.22
2023-06-19T00:54:36.753Z,18.22
2023-06-19T00:55:36.736Z,18.23
2023-06-19T00:56:36.739Z,18.22
2023-06-19T00:57:36.711Z,18.23
2023-06-19T00:58:36.712Z,18.25
2023-06-19T00:59:36.692Z,18.22
2023-06-19T01:00:36.676Z,18.19
2023-06-19T01:01:36.763Z,18.18
2023-06-19T01:02:36.819Z,18.18
2023-06-19T01:03:36.856Z,18.18
2023-06-19T01:04:36.685Z,18.18
2023-06-19T01:05:36.616Z,18.19
2023-06-19T01:06:36.628Z,18.22
2023-06-19T01:07:36.599Z,18.23
2023-06-19T01:08:36.586Z,18.28
2023-06-19T01:09:36.584Z,18.28
2023-06-19T01:10:36.580Z,18.28
2023-06-19T01:11:36.552Z,18.28
2023-06-19T01:12:36.531Z,18.28
2023-06-19T01:13:36.532Z,18.28
2023-06-19T01:14:36.521Z,18.29
2023-06-19T01:15:36.501Z,18.29
2023-06-19T01:16:36.523Z,18.29
2023-06-19T01:17:36.627Z,18.29
2023-06-19T01:18:36.474Z,18.26
2023-06-19T01:19:36.445Z,18.25
2023-06-19T01:20:36.443Z,18.23
2023-06-19T01:21:36.419Z,18.23
2023-06-19T01:22:36.440Z,18.25
2023-06-19T01:23:36.404Z,18.26
2023-06-19T01:24:36.683Z,18.22
2023-06-19T01:25:36.391Z,18.20
2023-06-19T01:26:36.374Z,18.20
2023-06-19T01:27:36.353Z,18.19
2023-06-19T01:28:36.333Z,18.19
2023-06-19T01:29:36.321Z,18.20
2023-06-19T01:30:36.319Z,18.22
2023-06-19T01:31:36.302Z,18.23
2023-06-19T01:32:36.335Z,18.25
2023-06-19T01:33:36.267Z,18.28
2023-06-19T01:34:37.411Z,18.31
2023-06-19T01:35:36.252Z,18.34
2023-06-19T01:36:36.238Z,18.40
2023-06-19T01:37:36.262Z,18.50
2023-06-19T01:38:36.228Z,18.59
2023-06-19T01:39:36.199Z,18.66
2023-06-19T01:40:36.175Z,18.75
2023-06-19T01:41:36.175Z,18.81
2023-06-19T01:42:36.155Z,18.86
2023-06-19T01:43:36.137Z,18.92
2023-06-19T01:44:36.136Z,18.98
2023-06-19T01:45:36.130Z,19.00
2023-06-19T01:46:36.206Z,19.07
2023-06-19T01:47:36.134Z,19.09
2023-06-19T01:48:36.079Z,19.14
2023-06-19T01:49:36.068Z,19.15
2023-06-19T01:50:36.060Z,19.21
2023-06-19T01:51:36.039Z,19.22
2023-06-19T01:52:36.031Z,19.26
2023-06-19T01:53:36.017Z,19.29
2023-06-19T01:54:36.034Z,19.30
2023-06-19T01:55:35.996Z,19.29
2023-06-19T01:56:36.005Z,19.27
2023-06-19T01:57:35.966Z,19.26
2023-06-19T01:58:35.968Z,19.21
2023-06-19T01:59:35.945Z,19.16
2023-06-19T02:00:35.946Z,19.14
2023-06-19T02:01:35.930Z,19.09
2023-06-19T02:02:36.069Z,19.08
2023-06-19T02:03:35.987Z,19.08
2023-06-19T02:04:35.890Z,19.08
2023-06-19T02:05:35.882Z,19.07
2023-06-19T02:06:35.862Z,19.08
2023-06-19T02:07:35.856Z,19.07
2023-06-19T02:08:35.844Z,19.08
2023-06-19T02:09:35.832Z,19.08
2023-06-19T02:10:35.850Z,19.09
2023-06-19T02:11:35.804Z,19.09
2023-06-19T02:12:35.792Z,19.09
2023-06-19T02:13:37.170Z,19.09
2023-06-19T02:14:35.772Z,19.09
2023-06-19T02:15:35.761Z,19.09
2023-06-19T02:16:35.847Z,19.09
2023-06-19T02:17:35.785Z,19.08
2023-06-19T02:18:35.719Z,19.08
2023-06-19T02:19:35.719Z,19.07
2023-06-19T02:20:35.699Z,19.07
2023-06-19T02:21:35.696Z,19.07
2023-06-19T02:22:35.674Z,19.07
2023-06-19T02:23:35.675Z,19.07
2023-06-19T02:24:35.677Z,19.04
2023-06-19T02:25:35.641Z,19.00
2023-06-19T02:26:35.648Z,19.00
2023-06-19T02:27:35.625Z,19.00
2023-06-19T02:28:35.603Z,19.00
2023-06-19T02:29:35.596Z,18.99
2023-06-19T02:30:35.571Z,18.98
2023-06-19T02:31:35.567Z,18.96
2023-06-19T02:32:35.608Z,18.99
2023-06-19T02:33:35.540Z,18.98
2023-06-19T02:34:35.527Z,18.98
2023-06-19T02:35:35.512Z,18.96
2023-06-19T02:36:35.522Z,18.93
2023-06-19T02:37:35.489Z,18.93
2023-06-19T02:38:35.478Z,18.93
2023-06-19T02:39:35.463Z,18.90
2023-06-19T02:40:35.460Z,18.90
2023-06-19T02:41:35.446Z,18.88
2023-06-19T02:42:35.461Z,18.84
2023-06-19T02:43:35.421Z,18.83
2023-06-19T02:44:35.408Z,18.81
2023-06-19T02:45:35.419Z,18.78
2023-06-19T02:46:35.389Z,18.77
2023-06-19T02:47:35.399Z,18.74
2023-06-19T02:48:35.357Z,18.73
2023-06-19T02:49:35.346Z,18.70
2023-06-19T02:50:35.371Z,18.70
2023-06-19T02:51:35.326Z,18.68
2023-06-19T02:52:35.322Z,18.65
2023-06-19T02:53:35.308Z,18.63
2023-06-19T02:54:35.285Z,18.62
2023-06-19T02:55:35.272Z,18.60
2023-06-19T02:56:35.269Z,18.60
2023-06-19T02:57:35.244Z,18.59
2023-06-19T02:58:35.255Z,18.58
2023-06-19T02:59:35.252Z,18.60
2023-06-19T03:00:35.230Z,18.60
2023-06-19T03:01:35.303Z,18.59
2023-06-19T03:02:35.283Z,18.58
2023-06-19T03:03:35.283Z,18.60
2023-06-19T03:04:35.173Z,18.60
2023-06-19T03:05:35.163Z,18.59
2023-06-19T03:06:35.139Z,18.60
2023-06-19T03:07:35.131Z,18.60
2023-06-19T03:08:35.120Z,18.60
2023-06-19T03:09:35.112Z,18.60
2023-06-19T03:10:35.098Z,18.62
2023-06-19T03:11:35.078Z,18.62
2023-06-19T03:12:35.082Z,18.60
2023-06-19T03:13:35.055Z,18.62
2023-06-19T03:14:35.076Z,18.62
2023-06-19T03:15:35.028Z,18.62
2023-06-19T03:16:35.030Z,18.62
2023-06-19T03:17:35.043Z,18.63
2023-06-19T03:18:35.008Z,18.65
2023-06-19T03:19:34.985Z,18.65
2023-06-19T03:20:34.978Z,18.65
2023-06-19T03:21:34.963Z,18.63
2023-06-19T03:22:34.959Z,18.63
2023-06-19T03:23:34.942Z,18.63
2023-06-19T03:24:34.971Z,18.63
2023-06-19T03:25:34.922Z,18.62
2023-06-19T03:26:34.920Z,18.63
2023-06-19T03:27:34.901Z,18.62
2023-06-19T03:28:34.879Z,18.62
2023-06-19T03:29:34.879Z,18.60
2023-06-19T03:30:34.890Z,18.60
2023-06-19T03:31:34.860Z,18.60
2023-06-19T03:32:34.868Z,18.60
2023-06-19T03:33:34.823Z,18.60
2023-06-19T03:34:34.803Z,18.59
2023-06-19T03:35:34.801Z,18.56
2023-06-19T03:36:34.781Z,18.55
2023-06-19T03:37:34.768Z,18.55
2023-06-19T03:38:34.764Z,18.52
2023-06-19T03:39:34.751Z,18.50
2023-06-19T03:40:34.743Z,18.49
2023-06-19T03:41:34.721Z,18.49
2023-06-19T03:42:34.708Z,18.45
2023-06-19T03:43:34.701Z,18.49
2023-06-19T03:44:34.694Z,18.47
2023-06-19T03:45:34.676Z,18.44
2023-06-19T03:46:34.751Z,18.44
2023-06-19T03:47:34.658Z,18.44
2023-06-19T03:48:34.641Z,18.44
2023-06-19T03:49:34.625Z,18.44
2023-06-19T03:50:34.799Z,18.44
2023-06-19T03:51:34.598Z,18.43
2023-06-19T03:52:34.596Z,18.44
2023-06-19T03:53:34.578Z,18.44
2023-06-19T03:54:34.570Z,18.44
2023-06-19T03:55:34.552Z,18.44
2023-06-19T03:56:34.540Z,18.44
2023-06-19T03:57:34.528Z,18.44
2023-06-19T03:58:34.518Z,18.44
2023-06-19T03:59:34.512Z,18.43
2023-06-19T04:00:34.529Z,18.43
2023-06-19T04:01:34.518Z,18.43
2023-06-19T04:02:34.568Z,18.44
2023-06-19T04:03:34.517Z,18.43
2023-06-19T04:04:34.454Z,18.43
2023-06-19T04:05:34.460Z,18.41
2023-06-19T04:06:34.422Z,18.40
2023-06-19T04:07:34.418Z,18.40
2023-06-19T04:08:34.399Z,18.40
2023-06-19T04:09:34.391Z,18.38
2023-06-19T04:10:36.041Z,18.40
2023-06-19T04:11:34.369Z,18.38
2023-06-19T04:12:34.356Z,18.37
2023-06-19T04:13:34.331Z,18.35
2023-06-19T04:14:34.325Z,18.35
2023-06-19T04:15:34.402Z,18.37
2023-06-19T04:16:34.342Z,18.37
2023-06-19T04:17:34.314Z,18.35
2023-06-19T04:18:34.326Z,18.34
2023-06-19T04:19:34.271Z,18.34
2023-06-19T04:20:34.252Z,18.34
2023-06-19T04:21:34.244Z,18.34
2023-06-19T04:22:34.226Z,18.31
2023-06-19T04:23:34.225Z,18.31
2023-06-19T04:24:34.270Z,18.28
2023-06-19T04:25:34.190Z,18.28
2023-06-19T04:26:34.190Z,18.26
2023-06-19T04:27:34.169Z,18.28
2023-06-19T04:28:34.156Z,18.28
2023-06-19T04:29:34.145Z,18.29
2023-06-19T04:30:34.149Z,18.33
2023-06-19T04:31:34.116Z,18.33
2023-06-19T04:32:34.402Z,18.34
2023-06-19T04:33:34.201Z,18.37
2023-06-19T04:34:34.112Z,18.40
2023-06-19T04:35:34.064Z,18.43
2023-06-19T04:36:34.063Z,18.45
2023-06-19T04:37:34.042Z,18.45
2023-06-19T04:38:34.050Z,18.47
2023-06-19T04:39:34.027Z,18.45
2023-06-19T04:40:34.014Z,18.45
2023-06-19T04:41:33.993Z,18.47
2023-06-19T04:42:33.985Z,18.50
2023-06-19T04:43:33.984Z,18.50
2023-06-19T04:44:33.964Z,18.55
2023-06-19T04:45:33.951Z,18.55
2023-06-19T04:46:33.961Z,18.59
2023-06-19T04:47:47.982Z,18.62
2023-06-19T04:48:35.022Z,18.63
2023-06-19T04:49:33.896Z,18.63
2023-06-19T04:50:33.915Z,18.66
2023-06-19T04:51:33.881Z,18.66
2023-06-19T04:52:33.856Z,18.66
2023-06-19T04:53:33.853Z,18.68
2023-06-19T04:54:33.839Z,18.70
2023-06-19T04:55:33.845Z,18.68
2023-06-19T04:56:33.815Z,18.71
2023-06-19T04:57:33.801Z,18.71
2023-06-19T04:58:33.792Z,18.71
2023-06-19T04:59:33.779Z,18.74
2023-06-19T05:00:33.776Z,18.75
2023-06-19T05:01:33.827Z,18.74
2023-06-19T05:02:33.795Z,18.78
2023-06-19T05:03:33.734Z,18.80
2023-06-19T05:04:33.910Z,18.80
2023-06-19T05:05:33.711Z,18.81
2023-06-19T05:06:33.840Z,18.83
2023-06-19T05:07:33.686Z,18.84
2023-06-19T05:08:33.674Z,18.83
2023-06-19T05:09:33.656Z,18.84
2023-06-19T05:10:33.654Z,18.86
2023-06-19T05:11:33.642Z,18.88
2023-06-19T05:12:33.623Z,18.90
2023-06-19T05:13:33.609Z,18.90
2023-06-19T05:14:33.603Z,18.90
2023-06-19T05:15:33.589Z,18.93
2023-06-19T05:16:36.571Z,18.95
2023-06-19T05:17:33.742Z,18.95
2023-06-19T05:18:33.593Z,18.93
2023-06-19T05:19:33.553Z,18.92
2023-06-19T05:20:33.536Z,18.90
2023-06-19T05:21:33.515Z,18.89
2023-06-19T05:22:33.549Z,18.89
2023-06-19T05:23:33.498Z,18.89
2023-06-19T05:24:33.525Z,18.88
2023-06-19T05:25:33.479Z,18.84
2023-06-19T05:26:33.462Z,18.84
2023-06-19T05:27:33.452Z,18.84
2023-06-19T05:28:33.436Z,18.86
2023-06-19T05:29:33.456Z,18.88
2023-06-19T05:30:33.420Z,18.89
2023-06-19T05:31:33.407Z,18.88
2023-06-19T05:32:33.417Z,18.88
2023-06-19T05:33:33.377Z,18.86
2023-06-19T05:34:33.373Z,18.81
2023-06-19T05:35:33.368Z,18.77
2023-06-19T05:36:33.345Z,18.73
2023-06-19T05:37:33.332Z,18.68
2023-06-19T05:38:33.340Z,18.63
2023-06-19T05:39:33.311Z,18.63
2023-06-19T05:40:33.298Z,18.63
2023-06-19T05:41:33.276Z,18.65
2023-06-19T05:42:33.266Z,18.63
2023-06-19T05:43:33.262Z,18.63
2023-06-19T05:44:33.251Z,18.65
2023-06-19T05:45:33.265Z,18.63
2023-06-19T05:46:33.225Z,18.63
2023-06-19T05:47:33.267Z,18.55
2023-06-19T05:48:33.212Z,18.58
2023-06-19T05:49:33.199Z,18.55
2023-06-19T05:50:33.172Z,18.50
2023-06-19T05:51:33.154Z,18.44
2023-06-19T05:52:33.145Z,18.43
2023-06-19T05:53:33.139Z,18.44
2023-06-19T05:54:33.153Z,18.44
2023-06-19T05:55:33.191Z,18.40
2023-06-19T05:56:33.097Z,18.38
2023-06-19T05:57:33.088Z,18.40
2023-06-19T05:58:33.082Z,18.43
2023-06-19T05:59:33.057Z,18.44
2023-06-19T06:00:33.041Z,18.41
2023-06-19T06:01:33.075Z,18.38
2023-06-19T06:02:33.063Z,18.38
2023-06-19T06:03:33.020Z,18.40
2023-06-19T06:04:33.037Z,18.40
2023-06-19T06:05:32.984Z,18.41
2023-06-19T06:06:32.969Z,18.41
2023-06-19T06:07:35.289Z,18.44
2023-06-19T06:08:32.945Z,18.45
2023-06-19T06:09:32.936Z,18.45
2023-06-19T06:10:32.948Z,18.44
2023-06-19T06:11:32.908Z,18.43
2023-06-19T06:12:32.938Z,18.44
2023-06-19T06:13:32.912Z,18.47
2023-06-19T06:14:32.871Z,18.49
2023-06-19T06:15:32.877Z,18.52
2023-06-19T06:16:32.879Z,18.53
2023-06-19T06:17:32.883Z,18.55
2023-06-19T06:18:32.834Z,18.58
2023-06-19T06:19:33.284Z,18.62
2023-06-19T06:20:32.856Z,18.65
2023-06-19T06:21:32.788Z,18.71
2023-06-19T06:22:32.780Z,18.74
2023-06-19T06:23:32.768Z,18.77
2023-06-19T06:24:32.812Z,18.84
2023-06-19T06:25:32.742Z,18.90
2023-06-19T06:26:32.790Z,18.99
2023-06-19T06:27:32.719Z,19.02
2023-06-19T06:28:32.771Z,18.99
2023-06-19T06:29:32.694Z,19.04
2023-06-19T06:30:32.683Z,19.07
2023-06-19T06:31:32.662Z,19.07
2023-06-19T06:32:32.694Z,19.04
2023-06-19T06:33:32.652Z,19.11
2023-06-19T06:34:32.625Z,19.16
2023-06-19T06:35:32.618Z,19.22
2023-06-19T06:37:32.585Z,19.44
2023-06-19T06:38:32.584Z,19.51
2023-06-19T06:39:32.566Z,19.66
2023-06-19T06:40:32.565Z,19.88
2023-06-19T06:41:32.546Z,19.91
2023-06-19T06:42:32.570Z,19.91
2023-06-19T06:43:32.512Z,19.86
2023-06-19T06:44:32.501Z,19.88
2023-06-19T06:45:32.531Z,19.88
2023-06-19T06:46:32.474Z,19.71
2023-06-19T06:47:32.480Z,19.54
2023-06-19T06:48:32.455Z,19.41
2023-06-19T06:49:32.450Z,19.34
2023-06-19T06:50:32.435Z,19.29
2023-06-19T06:51:32.415Z,19.27
2023-06-19T06:52:32.414Z,19.24
2023-06-19T06:53:32.396Z,19.27
2023-06-19T06:54:32.378Z,19.31
2023-06-19T06:55:32.372Z,19.34
2023-06-19T06:56:32.360Z,19.37
2023-06-19T06:57:32.335Z,19.44
2023-06-19T06:58:32.358Z,19.44
2023-06-19T06:59:32.314Z,19.44
2023-06-19T07:00:32.308Z,19.47
2023-06-19T07:01:32.356Z,19.40
2023-06-19T07:02:32.409Z,19.37
2023-06-19T07:03:32.326Z,19.34
2023-06-19T07:04:32.263Z,19.37
2023-06-19T07:05:32.256Z,19.39
2023-06-19T07:06:32.256Z,19.34
2023-06-19T07:07:32.228Z,19.36
2023-06-19T07:08:32.206Z,19.37
2023-06-19T07:09:32.203Z,19.34
2023-06-19T07:10:32.197Z,19.41
2023-06-19T07:11:32.179Z,19.44
2023-06-19T07:12:32.173Z,19.52
2023-06-19T07:13:32.156Z,19.55
2023-06-19T07:14:32.176Z,19.62
2023-06-19T07:15:32.136Z,19.56
2023-06-19T07:16:32.161Z,19.59
2023-06-19T07:17:32.140Z,19.88
2023-06-19T07:18:32.093Z,20.10
2023-06-19T07:19:32.099Z,20.31
2023-06-19T07:20:32.070Z,20.50
2023-06-19T07:21:32.075Z,20.50
2023-06-19T07:22:32.044Z,20.47
2023-06-19T07:23:32.033Z,20.39
2023-06-19T07:24:32.082Z,20.52
2023-06-19T07:25:32.017Z,21.21
2023-06-19T07:26:32.032Z,21.51
2023-06-19T07:27:31.988Z,21.79
2023-06-19T07:28:31.980Z,21.72
2023-06-19T07:29:31.963Z,21.61
2023-06-19T07:30:31.975Z,21.55
2023-06-19T07:31:31.938Z,21.54
2023-06-19T07:32:31.990Z,22.10
2023-06-19T07:33:31.903Z,22.81
2023-06-19T07:34:31.890Z,23.12
2023-06-19T07:35:31.890Z,23.37
2023-06-19T07:36:31.904Z,24.81
2023-06-19T07:38:31.863Z,26.48
2023-06-19T07:39:31.844Z,25.58
2023-06-19T07:40:31.821Z,24.96
2023-06-19T07:41:31.813Z,24.14
2023-06-19T07:42:31.813Z,23.46
2023-06-19T07:43:31.799Z,22.94
2023-06-19T07:44:31.778Z,22.75
2023-06-19T07:45:31.767Z,22.73
2023-06-19T07:46:32.044Z,23.50
2023-06-19T07:47:31.788Z,23.69
2023-06-19T07:48:31.732Z,23.32
2023-06-19T07:49:31.720Z,22.96
2023-06-19T07:50:31.963Z,22.69
2023-06-19T07:51:31.707Z,22.65
2023-06-19T07:52:31.676Z,22.60
2023-06-19T07:53:31.685Z,22.63
2023-06-19T07:54:31.653Z,22.80
2023-06-19T07:55:31.646Z,24.29
2023-06-19T07:56:31.647Z,25.44
2023-06-19T07:57:31.621Z,25.17
2023-06-19T07:58:31.620Z,24.60
2023-06-19T07:59:31.605Z,24.24
2023-06-19T08:00:31.580Z,23.74
2023-06-19T08:01:31.576Z,23.40
2023-06-19T08:02:32.195Z,23.05
2023-06-19T08:03:31.644Z,22.87
2023-06-19T08:04:33.172Z,22.75
2023-06-19T08:05:31.522Z,23.31
2023-06-19T08:06:31.511Z,23.69
2023-06-19T08:07:31.499Z,24.23
2023-06-19T08:08:31.488Z,24.86
2023-06-19T08:09:31.467Z,24.81
2023-06-19T08:10:31.667Z,24.99
2023-06-19T08:11:31.448Z,25.72
2023-06-19T08:12:31.428Z,25.53
2023-06-19T08:13:31.414Z,25.32
2023-06-19T08:14:31.409Z,25.44
2023-06-19T08:15:31.387Z,26.05
2023-06-19T08:16:31.428Z,26.55
2023-06-19T08:17:31.398Z,26.48
2023-06-19T08:18:31.560Z,25.99
2023-06-19T08:19:31.334Z,25.65
2023-06-19T08:20:31.325Z,25.54
2023-06-19T08:21:31.310Z,25.17
2023-06-19T08:22:31.300Z,25.26
2023-06-19T08:23:31.287Z,25.70
2023-06-19T08:24:31.281Z,26.21
2023-06-19T08:25:31.334Z,26.21
2023-06-19T08:26:31.244Z,25.73
2023-06-19T08:27:31.285Z,25.66
2023-06-19T08:28:31.219Z,25.65
2023-06-19T08:29:31.212Z,25.32
2023-06-19T08:30:31.184Z,25.10
2023-06-19T08:31:31.189Z,25.04
2023-06-19T08:32:31.202Z,25.06
2023-06-19T08:33:31.151Z,25.03
2023-06-19T08:34:31.186Z,24.86
2023-06-19T08:35:31.129Z,24.66
2023-06-19T08:36:31.189Z,24.48
2023-06-19T08:37:31.119Z,24.35
2023-06-19T08:38:31.091Z,24.26
2023-06-19T08:39:31.067Z,24.36
2023-06-19T08:40:31.055Z,24.47
2023-06-19T08:41:31.053Z,24.53
2023-06-19T08:42:31.034Z,24.45
2023-06-19T08:43:31.011Z,24.42
2023-06-19T08:44:31.001Z,24.43
2023-06-19T08:45:30.992Z,24.40
2023-06-19T08:46:31.074Z,24.36
2023-06-19T08:47:31.020Z,24.26
2023-06-19T08:48:30.963Z,24.24
2023-06-19T08:49:30.944Z,24.29
2023-06-19T08:50:30.965Z,24.30
2023-06-19T08:51:30.948Z,24.30
2023-06-19T08:52:30.905Z,24.32
2023-06-19T08:53:30.899Z,24.33
2023-06-19T08:54:30.872Z,24.36
2023-06-19T08:55:30.871Z,24.39
2023-06-19T08:56:30.873Z,24.36
2023-06-19T08:57:30.844Z,24.40
2023-06-19T08:58:30.831Z,24.48
2023-06-19T08:59:30.819Z,24.51
2023-06-19T09:00:31.294Z,24.48
2023-06-19T09:01:30.792Z,24.50
2023-06-19T09:02:30.849Z,24.58
2023-06-19T09:03:30.927Z,24.53
2023-06-19T09:04:30.760Z,24.57
2023-06-19T09:05:30.770Z,24.47
2023-06-19T09:06:30.917Z,24.53
2023-06-19T09:07:30.866Z,24.54
2023-06-19T09:08:30.703Z,24.55
2023-06-19T09:09:30.689Z,24.40
2023-06-19T09:10:30.675Z,24.32
2023-06-19T09:11:30.675Z,24.28
2023-06-19T09:12:30.651Z,24.17
2023-06-19T09:13:30.641Z,24.17
2023-06-19T09:14:30.620Z,24.17
2023-06-19T09:15:30.617Z,24.21
2023-06-19T09:16:30.603Z,24.30
2023-06-19T09:17:30.591Z,24.30
2023-06-19T09:18:30.572Z,24.33
2023-06-19T09:19:30.549Z,24.39
2023-06-19T09:20:30.551Z,24.47
2023-06-19T09:21:30.529Z,24.48
2023-06-19T09:22:32.759Z,24.50
2023-06-19T09:23:30.498Z,24.47
2023-06-19T09:24:30.503Z,24.45
2023-06-19T09:25:30.501Z,24.50
2023-06-19T09:26:30.469Z,24.57
2023-06-19T09:27:30.457Z,24.63
2023-06-19T09:28:30.445Z,24.66
2023-06-19T09:29:30.428Z,24.74
2023-06-19T09:30:30.411Z,24.80
2023-06-19T09:31:30.392Z,24.86
2023-06-19T09:32:30.405Z,24.88
2023-06-19T09:33:30.411Z,24.86
2023-06-19T09:34:30.358Z,24.84
2023-06-19T09:35:30.345Z,24.81
2023-06-19T09:36:30.336Z,24.88
2023-06-19T09:37:30.311Z,24.88
2023-06-19T09:38:30.347Z,24.78
2023-06-19T09:39:30.296Z,24.66
2023-06-19T09:40:30.276Z,24.66
2023-06-19T09:41:30.269Z,24.73
2023-06-19T09:42:30.255Z,24.76
2023-06-19T09:43:30.235Z,24.81
2023-06-19T09:44:30.232Z,24.89
2023-06-19T09:45:30.225Z,24.93
2023-06-19T09:46:30.200Z,24.92
2023-06-19T09:47:30.286Z,24.92
2023-06-19T09:48:30.230Z,24.80
2023-06-19T09:49:30.168Z,24.69
2023-06-19T09:50:30.165Z,24.66
2023-06-19T09:51:30.136Z,24.65
2023-06-19T09:52:30.128Z,24.63
2023-06-19T09:53:30.124Z,24.61
2023-06-19T09:54:30.193Z,24.70
2023-06-19T09:55:30.089Z,24.85
2023-06-19T09:56:30.105Z,24.92
2023-06-19T09:57:30.066Z,24.89
2023-06-19T09:58:30.058Z,24.91
2023-06-19T09:59:30.045Z,24.99
2023-06-19T10:00:30.032Z,25.01
2023-06-19T10:01:30.012Z,25.03
2023-06-19T10:02:30.164Z,24.99
2023-06-19T10:03:29.982Z,24.99
2023-06-19T10:04:29.980Z,24.99
2023-06-19T10:05:29.956Z,25.04
2023-06-19T10:06:29.942Z,25.08
2023-06-19T10:07:29.925Z,25.11
2023-06-19T10:08:29.923Z,25.17
2023-06-19T10:09:29.911Z,25.18
2023-06-19T10:10:33.130Z,25.29
2023-06-19T10:11:29.885Z,25.32
2023-06-19T10:12:29.875Z,25.36
2023-06-19T10:13:29.853Z,25.38
2023-06-19T10:14:29.844Z,25.40
2023-06-19T10:15:29.925Z,25.44
2023-06-19T10:16:30.408Z,25.50
2023-06-19T10:17:29.805Z,25.48
2023-06-19T10:18:29.788Z,25.54
2023-06-19T10:19:29.785Z,25.63
2023-06-19T10:20:29.785Z,25.70
2023-06-19T10:21:29.756Z,25.73
2023-06-19T10:22:29.756Z,25.80
2023-06-19T10:23:29.766Z,25.84
2023-06-19T10:24:29.887Z,25.83
2023-06-19T10:25:29.750Z,25.83
2023-06-19T10:26:29.873Z,25.80
2023-06-19T10:27:29.790Z,25.66
2023-06-19T10:28:29.745Z,25.70
2023-06-19T10:29:29.670Z,25.70
2023-06-19T10:30:29.898Z,25.78
2023-06-19T10:31:29.645Z,25.81
2023-06-19T10:32:29.640Z,25.83
2023-06-19T10:33:29.602Z,25.88
2023-06-19T10:34:29.587Z,25.93
2023-06-19T10:35:29.586Z,25.99
2023-06-19T10:36:29.570Z,25.99
2023-06-19T10:37:29.552Z,25.90
2023-06-19T10:38:29.542Z,25.87
2023-06-19T10:39:29.523Z,25.84
2023-06-19T10:40:29.516Z,25.88
2023-06-19T10:41:29.494Z,25.95
2023-06-19T10:42:29.514Z,25.90
2023-06-19T10:43:29.483Z,25.96
2023-06-19T10:44:29.467Z,25.99
2023-06-19T10:45:29.553Z,25.87
2023-06-19T10:46:29.476Z,25.91
2023-06-19T10:47:29.436Z,25.99
2023-06-19T10:48:29.408Z,26.06
2023-06-19T10:49:29.407Z,26.02
2023-06-19T10:50:29.381Z,26.00
2023-06-19T10:51:29.377Z,25.95
2023-06-19T10:52:29.372Z,25.88
2023-06-19T10:53:29.350Z,25.87
2023-06-19T10:54:29.328Z,25.88
2023-06-19T10:55:29.319Z,25.90
2023-06-19T10:56:29.316Z,25.90
2023-06-19T10:57:29.293Z,25.91
2023-06-19T10:58:29.304Z,25.88
2023-06-19T10:59:29.273Z,25.87
2023-06-19T11:00:29.250Z,25.84
2023-06-19T11:01:29.250Z,25.87
2023-06-19T11:02:29.319Z,25.96
2023-06-19T11:03:29.333Z,26.02
2023-06-19T11:04:29.226Z,26.06
2023-06-19T11:05:29.218Z,26.02
2023-06-19T11:06:29.184Z,26.02
2023-06-19T11:07:29.192Z,25.99
2023-06-19T11:08:29.162Z,25.95
2023-06-19T11:09:29.145Z,25.91
2023-06-19T11:10:29.165Z,25.95
2023-06-19T11:11:29.126Z,26.00
2023-06-19T11:12:29.117Z,26.16
2023-06-19T11:13:29.102Z,26.23
2023-06-19T11:14:29.172Z,26.40
2023-06-19T11:15:29.128Z,26.53
2023-06-19T11:16:29.139Z,26.62
2023-06-19T11:17:29.100Z,26.70
2023-06-19T11:18:29.043Z,26.60
2023-06-19T11:19:29.028Z,26.52
2023-06-19T11:20:29.012Z,26.45
2023-06-19T11:21:29.012Z,26.38
2023-06-19T11:22:28.988Z,26.36
2023-06-19T11:23:28.974Z,26.36
2023-06-19T11:24:29.015Z,26.38
2023-06-19T11:25:28.953Z,26.45
2023-06-19T11:26:28.936Z,26.58
2023-06-19T11:27:28.919Z,26.58
2023-06-19T11:28:28.916Z,26.53
2023-06-19T11:29:28.895Z,26.44
2023-06-19T11:30:28.933Z,26.41
2023-06-19T11:31:28.871Z,26.45
2023-06-19T11:32:28.904Z,26.48
2023-06-19T11:33:28.853Z,26.51
2023-06-19T11:34:28.839Z,26.53
2023-06-19T11:35:28.831Z,26.55
2023-06-19T11:36:28.807Z,26.52
2023-06-19T11:37:28.797Z,26.53
2023-06-19T11:38:28.816Z,26.62
2023-06-19T11:39:28.791Z,26.63
2023-06-19T11:40:28.768Z,26.70
2023-06-19T11:41:28.760Z,26.74
2023-06-19T11:42:28.738Z,26.85
2023-06-19T11:43:28.723Z,26.96
2023-06-19T11:44:28.724Z,27.00
2023-06-19T11:45:28.707Z,27.00
2023-06-19T11:46:28.841Z,27.05
2023-06-19T11:47:28.696Z,27.08
2023-06-19T11:48:28.673Z,27.18
2023-06-19T11:49:28.650Z,27.20
2023-06-19T11:50:28.919Z,27.15
2023-06-19T11:51:28.639Z,27.14
2023-06-19T11:52:28.618Z,27.12
2023-06-19T11:53:28.604Z,27.11
2023-06-19T11:54:28.603Z,27.11
2023-06-19T11:55:28.595Z,27.08
2023-06-19T11:56:28.562Z,27.14
2023-06-19T11:57:28.570Z,27.14
2023-06-19T11:58:28.549Z,27.12
2023-06-19T11:59:28.541Z,27.11
2023-06-19T12:00:28.539Z,27.08
2023-06-19T12:01:28.505Z,27.14
2023-06-19T12:02:28.741Z,27.12
2023-06-19T12:03:28.798Z,27.10
2023-06-19T12:04:28.655Z,27.10
2023-06-19T12:05:28.479Z,27.12
2023-06-19T12:06:28.452Z,27.11
2023-06-19T12:07:28.437Z,27.15
2023-06-19T12:08:28.414Z,27.15
2023-06-19T12:09:28.423Z,27.05
2023-06-19T12:10:28.403Z,27.00
2023-06-19T12:11:28.400Z,26.96
2023-06-19T12:12:28.373Z,26.93
2023-06-19T12:13:28.384Z,26.96
2023-06-19T12:14:28.364Z,27.00
2023-06-19T12:15:28.344Z,27.03
2023-06-19T12:16:28.376Z,27.08
2023-06-19T12:17:28.353Z,27.14
2023-06-19T12:18:28.412Z,27.22
2023-06-19T12:19:28.290Z,27.26
2023-06-19T12:20:28.291Z,27.30
2023-06-19T12:21:36.347Z,27.29
2023-06-19T12:22:29.290Z,27.27
2023-06-19T12:23:28.231Z,27.27
2023-06-19T12:24:28.280Z,27.20
2023-06-19T12:25:28.212Z,27.10
2023-06-19T12:26:28.222Z,27.08
2023-06-19T12:27:28.207Z,27.14
2023-06-19T12:28:28.178Z,27.22
2023-06-19T12:29:34.165Z,27.35
2023-06-19T12:30:28.306Z,27.45
2023-06-19T12:31:28.214Z,27.52
2023-06-19T12:32:28.212Z,27.63
2023-06-19T12:33:28.126Z,27.67
2023-06-19T12:34:31.178Z,27.77
2023-06-19T12:35:28.092Z,27.87
2023-06-19T12:36:28.066Z,27.93
2023-06-19T12:37:28.064Z,27.87
2023-06-19T12:38:28.051Z,27.89
2023-06-19T12:39:28.069Z,27.95
2023-06-19T12:40:28.322Z,27.93
2023-06-19T12:41:28.014Z,27.87
2023-06-19T12:42:28.012Z,27.86
2023-06-19T12:43:27.998Z,27.85
2023-06-19T12:44:28.007Z,27.86
2023-06-19T12:45:27.967Z,27.89
2023-06-19T12:46:28.040Z,27.85
2023-06-19T12:47:28.001Z,27.85
2023-06-19T12:48:27.927Z,27.85
2023-06-19T12:49:27.921Z,27.83
2023-06-19T12:50:27.935Z,27.73
2023-06-19T12:51:27.878Z,27.68
2023-06-19T12:52:27.882Z,27.63
2023-06-19T12:53:28.005Z,27.64
2023-06-19T12:54:27.850Z,27.63